createdAt,value
2022-09-07T00:01:09.586Z,15.73
2022-09-07T00:03:37.000Z,15.73
2022-09-07T00:06:13.908Z,15.69
2022-09-07T00:08:43.874Z,15.65
2022-09-07T00:11:19.350Z,15.58
2022-09-07T00:13:49.969Z,15.50
2022-09-07T00:16:30.155Z,15.46
2022-09-07T00:19:03.855Z,15.48
2022-09-07T00:21:31.884Z,15.43
2022-09-07T00:23:58.847Z,15.35
2022-09-07T00:26:30.780Z,15.30
2022-09-07T00:29:02.225Z,15.20
2022-09-07T00:31:32.239Z,15.14
2022-09-07T00:34:03.307Z,15.10
2022-09-07T00:36:31.188Z,15.14
2022-09-07T00:38:58.675Z,15.11
2022-09-07T00:41:26.649Z,15.13
2022-09-07T00:43:58.079Z,15.05
2022-09-07T00:46:34.354Z,14.97
2022-09-07T00:49:19.352Z,14.90
2022-09-07T00:52:00.913Z,14.84
2022-09-07T00:54:42.438Z,14.80
2022-09-07T00:57:10.853Z,14.72
2022-09-07T00:59:46.906Z,14.64
2022-09-07T01:02:17.590Z,14.65
2022-09-07T01:04:59.121Z,14.62
2022-09-07T01:07:26.252Z,14.57
2022-09-07T01:09:57.053Z,14.53
2022-09-07T01:12:24.981Z,14.44
2022-09-07T01:14:54.925Z,14.35
2022-09-07T01:18:07.922Z,14.23
2022-09-07T01:21:27.233Z,14.18
2022-09-07T01:25:02.316Z,14.15
2022-09-07T01:28:03.542Z,14.18
2022-09-07T01:30:40.045Z,14.17
2022-09-07T01:33:40.692Z,14.15
2022-09-07T01:36:36.925Z,14.10
2022-09-07T01:39:06.487Z,14.08
2022-09-07T01:42:00.949Z,14.07
2022-09-07T01:44:52.229Z,13.99
2022-09-07T01:47:37.214Z,14.02
2022-09-07T01:50:37.835Z,13.97
2022-09-07T01:53:55.061Z,13.89
2022-09-07T01:56:44.653Z,13.84
2022-09-07T01:59:30.204Z,13.83
2022-09-07T02:02:14.461Z,13.83
2022-09-07T02:05:12.798Z,13.81
2022-09-07T02:08:15.991Z,13.84
2022-09-07T02:11:09.010Z,13.80
2022-09-07T02:13:54.253Z,13.73
2022-09-07T02:16:31.546Z,13.76
2022-09-07T02:19:17.320Z,13.75
2022-09-07T02:21:59.467Z,13.69
2022-09-07T02:24:40.988Z,13.66
2022-09-07T02:27:21.364Z,13.62
2022-09-07T02:29:48.761Z,13.62
2022-09-07T02:32:15.810Z,13.58
2022-09-07T02:34:43.040Z,13.56
2022-09-07T02:37:13.971Z,13.52
2022-09-07T02:39:41.315Z,13.49
2022-09-07T02:42:13.896Z,13.59
2022-09-07T02:44:46.641Z,13.54
2022-09-07T02:48:08.791Z,13.54
2022-09-07T02:51:26.777Z,13.50
2022-09-07T02:54:46.385Z,13.50
2022-09-07T02:57:45.895Z,13.47
2022-09-07T03:00:26.105Z,13.40
2022-09-07T03:03:20.555Z,13.35
2022-09-07T03:06:04.405Z,13.34
2022-09-07T03:08:48.947Z,13.37
2022-09-07T03:11:18.419Z,13.28
2022-09-07T03:13:45.514Z,13.21
2022-09-07T03:16:17.251Z,13.19
2022-09-07T03:18:44.970Z,13.18
2022-09-07T03:21:12.132Z,13.16
2022-09-07T03:23:39.555Z,13.11
2022-09-07T03:26:06.741Z,13.06
2022-09-07T03:28:33.748Z,13.00
2022-09-07T03:31:03.085Z,12.97
2022-09-07T03:33:30.140Z,12.93
2022-09-07T03:36:02.505Z,12.91
2022-09-07T03:38:31.180Z,12.95
2022-09-07T03:41:02.232Z,12.95
2022-09-07T03:43:31.503Z,12.97
2022-09-07T03:46:05.371Z,12.93
2022-09-07T03:48:35.365Z,12.88
2022-09-07T03:51:08.451Z,12.86
2022-09-07T03:53:44.150Z,12.85
2022-09-07T03:56:21.176Z,12.85
2022-09-07T03:58:51.414Z,12.86
2022-09-07T04:01:24.660Z,12.89
2022-09-07T04:04:01.316Z,12.90
2022-09-07T04:06:31.563Z,12.92
2022-09-07T04:09:06.339Z,12.90
2022-09-07T04:11:35.138Z,12.91
2022-09-07T04:14:02.499Z,12.96
2022-09-07T04:16:31.432Z,12.91
2022-09-07T04:18:59.136Z,12.91
2022-09-07T04:21:30.444Z,12.87
2022-09-07T04:23:59.155Z,12.81
2022-09-07T04:26:32.001Z,12.79
2022-09-07T04:29:04.236Z,12.78
2022-09-07T04:31:35.062Z,12.72
2022-09-07T04:34:03.194Z,12.73
2022-09-07T04:36:30.382Z,12.73
2022-09-07T04:39:02.646Z,12.71
2022-09-07T04:41:33.573Z,12.76
2022-09-07T04:44:05.027Z,12.76
2022-09-07T04:46:37.059Z,12.72
2022-09-07T04:49:12.188Z,12.71
2022-09-07T04:51:42.958Z,12.77
2022-09-07T04:54:11.949Z,12.75
2022-09-07T04:56:39.128Z,12.74
2022-09-07T04:59:06.425Z,12.77
2022-09-07T05:01:33.772Z,12.80
2022-09-07T05:04:03.713Z,12.85
2022-09-07T05:06:30.948Z,12.88
2022-09-07T05:09:00.142Z,12.97
2022-09-07T05:11:30.120Z,13.00
2022-09-07T05:14:04.199Z,12.99
2022-09-07T05:16:32.230Z,13.04
2022-09-07T05:19:02.456Z,13.10
2022-09-07T05:21:35.419Z,13.15
2022-09-07T05:24:04.522Z,13.18
2022-09-07T05:26:36.746Z,13.22
2022-09-07T05:31:54.971Z,13.45
2022-09-07T05:34:30.221Z,13.47
2022-09-07T05:36:58.084Z,13.57
2022-09-07T05:39:26.010Z,13.67
2022-09-07T05:41:53.197Z,13.74
2022-09-07T05:47:07.697Z,13.84
2022-09-07T05:49:34.824Z,14.03
2022-09-07T05:52:01.971Z,14.02
2022-09-07T05:54:29.060Z,14.10
2022-09-07T05:56:56.093Z,14.24
2022-09-07T05:59:23.122Z,14.35
2022-09-07T06:01:50.184Z,14.38
2022-09-07T06:04:17.406Z,14.52
2022-09-07T06:06:54.629Z,14.61
2022-09-07T06:09:31.743Z,14.70
2022-09-07T06:12:01.859Z,14.83
2022-09-07T06:14:28.899Z,15.07
2022-09-07T06:16:56.046Z,15.31
2022-09-07T06:19:23.059Z,15.40
2022-09-07T06:21:50.141Z,15.61
2022-09-07T06:24:17.290Z,15.74
2022-09-07T06:26:44.339Z,15.84
2022-09-07T06:29:11.544Z,15.99
2022-09-07T06:34:26.447Z,16.02
2022-09-07T06:36:53.450Z,15.99
2022-09-07T06:39:20.454Z,15.77
2022-09-07T06:42:02.849Z,15.70
2022-09-07T06:44:31.155Z,15.77
2022-09-07T06:49:29.181Z,15.78
2022-09-07T06:51:59.137Z,15.87
2022-09-07T06:57:13.138Z,16.49
2022-09-07T06:59:40.140Z,16.62
2022-09-07T07:02:12.687Z,17.01
2022-09-07T07:04:41.171Z,17.11
2022-09-07T07:07:15.323Z,17.58
2022-09-07T07:09:42.652Z,17.70
2022-09-07T07:15:05.762Z,18.13
2022-09-07T07:17:32.736Z,18.24
2022-09-07T07:19:59.733Z,18.48
2022-09-07T07:22:45.732Z,18.50
2022-09-07T07:25:15.116Z,18.60
2022-09-07T07:27:42.509Z,18.60
2022-09-07T07:30:10.389Z,18.85
2022-09-07T07:32:38.269Z,19.05
2022-09-07T07:35:07.750Z,19.10
2022-09-07T07:37:37.208Z,19.17
2022-09-07T07:42:41.882Z,19.05
2022-09-07T07:47:59.182Z,18.84
2022-09-07T07:50:33.924Z,18.91
2022-09-07T07:55:48.409Z,19.87
2022-09-07T07:58:15.379Z,19.60
2022-09-07T08:00:57.883Z,19.70
2022-09-07T08:03:26.311Z,19.81
2022-09-07T08:05:54.555Z,20.03
2022-09-07T08:08:24.055Z,20.24
2022-09-07T08:10:51.632Z,20.25
2022-09-07T08:13:19.317Z,20.01
2022-09-07T08:15:46.708Z,20.17
2022-09-07T08:18:17.260Z,20.55
2022-09-07T08:20:44.664Z,20.76
2022-09-07T08:23:12.022Z,20.79
2022-09-07T08:25:39.154Z,20.80
2022-09-07T08:28:06.319Z,20.90
2022-09-07T08:30:33.370Z,21.00
2022-09-07T08:33:00.344Z,21.00
2022-09-07T08:35:27.479Z,21.24
2022-09-07T08:37:54.477Z,21.24
2022-09-07T08:40:21.526Z,21.45
2022-09-07T08:43:37.899Z,21.64
2022-09-07T08:46:23.541Z,21.81
2022-09-07T08:48:50.955Z,21.60
2022-09-07T08:51:40.643Z,21.75
2022-09-07T08:54:14.397Z,21.91
2022-09-07T09:00:06.001Z,22.20
2022-09-07T09:02:40.231Z,22.22
2022-09-07T09:06:05.159Z,22.48
2022-09-07T09:09:25.463Z,22.64
2022-09-07T09:13:04.971Z,22.49
2022-09-07T09:16:02.666Z,22.23
2022-09-07T09:19:25.521Z,22.31
2022-09-07T09:22:15.694Z,22.48
2022-09-07T09:25:16.859Z,22.51
2022-09-07T09:27:43.907Z,22.59
2022-09-07T09:30:24.280Z,22.80
2022-09-07T09:33:18.572Z,23.02
2022-09-07T09:35:52.227Z,23.05
2022-09-07T09:38:36.944Z,23.06
2022-09-07T09:41:10.495Z,23.14
2022-09-07T09:43:56.412Z,22.86
2022-09-07T09:46:36.125Z,22.86
2022-09-07T09:49:26.289Z,22.95
2022-09-07T09:54:53.912Z,23.43
2022-09-07T10:01:36.274Z,23.74
2022-09-07T10:04:24.845Z,23.50
2022-09-07T10:07:22.850Z,23.45
2022-09-07T10:09:54.698Z,23.19
2022-09-07T10:12:37.114Z,22.77
2022-09-07T10:15:08.317Z,22.97
2022-09-07T10:17:43.500Z,23.01
2022-09-07T10:20:13.121Z,23.04
2022-09-07T10:22:40.911Z,23.04
2022-09-07T10:25:37.217Z,23.32
2022-09-07T10:28:25.205Z,23.40
2022-09-07T10:31:32.087Z,23.46
2022-09-07T10:34:50.656Z,23.41
2022-09-07T10:38:00.635Z,23.30
2022-09-07T10:40:53.239Z,23.35
2022-09-07T10:43:49.771Z,23.31
2022-09-07T10:47:24.833Z,23.44
2022-09-07T10:50:23.510Z,23.42
2022-09-07T10:53:46.740Z,23.44
2022-09-07T10:57:13.478Z,23.36
2022-09-07T11:00:11.791Z,23.36
2022-09-07T11:03:29.290Z,23.50
2022-09-07T11:06:37.538Z,23.43
2022-09-07T11:09:51.864Z,23.46
2022-09-07T11:12:38.533Z,23.49
2022-09-07T11:15:27.791Z,23.47
2022-09-07T11:18:32.888Z,23.57
2022-09-07T11:21:12.519Z,23.78
2022-09-07T11:23:52.972Z,24.01
2022-09-07T11:26:25.111Z,24.06
2022-09-07T11:29:31.882Z,24.08
2022-09-07T11:32:28.886Z,24.05
2022-09-07T11:35:29.496Z,23.95
2022-09-07T11:38:14.275Z,23.70
2022-09-07T11:41:13.127Z,23.64
2022-09-07T11:44:00.921Z,23.59
2022-09-07T11:46:48.391Z,23.64
2022-09-07T11:49:26.026Z,23.62
2022-09-07T11:52:20.436Z,23.62
2022-09-07T11:55:00.631Z,23.70
2022-09-07T11:57:35.957Z,23.60
2022-09-07T12:00:31.261Z,23.86
2022-09-07T12:03:56.053Z,24.01
2022-09-07T12:07:00.760Z,24.01
2022-09-07T12:10:27.182Z,24.11
2022-09-07T12:13:47.017Z,24.10
2022-09-07T12:16:57.953Z,24.15
2022-09-07T12:19:28.301Z,24.20
2022-09-07T12:22:01.093Z,24.29
2022-09-07T12:24:45.883Z,24.44
2022-09-07T12:27:21.997Z,24.48
2022-09-07T12:30:11.841Z,24.64
2022-09-07T12:32:56.180Z,24.60
2022-09-07T12:35:29.999Z,24.66
2022-09-07T12:38:20.262Z,24.48
2022-09-07T12:40:59.312Z,24.42
2022-09-07T12:43:36.019Z,24.38
2022-09-07T12:46:03.722Z,24.43
2022-09-07T12:48:56.678Z,24.49
2022-09-07T12:55:16.718Z,24.75
2022-09-07T12:58:23.854Z,24.85
2022-09-07T13:01:49.818Z,24.86
2022-09-07T13:04:50.274Z,24.83
2022-09-07T13:08:04.329Z,24.74
2022-09-07T13:10:44.211Z,24.70
2022-09-07T13:16:30.032Z,24.54
2022-09-07T13:19:01.890Z,24.55
2022-09-07T13:21:42.742Z,24.64
2022-09-07T13:27:27.224Z,24.70
2022-09-07T13:30:24.865Z,24.65
2022-09-07T13:33:40.111Z,24.67
2022-09-07T13:36:49.491Z,24.56
2022-09-07T13:39:21.776Z,24.67
2022-09-07T13:41:58.075Z,24.66
2022-09-07T13:44:33.579Z,25.11
2022-09-07T13:47:24.546Z,25.72
2022-09-07T13:50:35.712Z,25.55
2022-09-07T13:53:30.554Z,26.09
2022-09-07T13:56:26.925Z,26.34
2022-09-07T13:58:56.552Z,25.90
2022-09-07T14:01:28.887Z,25.62
2022-09-07T14:04:11.893Z,25.21
2022-09-07T14:06:39.227Z,25.27
2022-09-07T14:09:22.401Z,25.08
2022-09-07T14:11:56.943Z,25.09
2022-09-07T14:14:33.028Z,24.93
2022-09-07T14:16:59.981Z,24.76
2022-09-07T14:19:52.099Z,24.52
2022-09-07T14:22:23.541Z,24.45
2022-09-07T14:24:58.680Z,24.49
2022-09-07T14:27:42.790Z,24.67
2022-09-07T14:30:33.445Z,25.18
2022-09-07T14:33:17.389Z,25.45
2022-09-07T14:35:44.524Z,25.47
2022-09-07T14:41:20.028Z,25.10
2022-09-07T14:44:00.872Z,25.24
2022-09-07T14:46:34.859Z,26.19
2022-09-07T14:49:21.853Z,26.49
2022-09-07T14:51:50.519Z,27.02
2022-09-07T14:54:32.398Z,27.73
2022-09-07T14:57:10.008Z,28.26
2022-09-07T14:59:47.526Z,28.38
2022-09-07T15:02:27.277Z,28.75
2022-09-07T15:05:23.675Z,29.28
2022-09-07T15:08:02.861Z,28.69
2022-09-07T15:10:41.635Z,29.28
2022-09-07T15:13:34.225Z,29.15
2022-09-07T15:16:07.366Z,28.97
2022-09-07T15:19:02.574Z,28.97
2022-09-07T15:21:36.793Z,29.31
2022-09-07T15:24:04.650Z,29.41
2022-09-07T15:29:32.840Z,29.15
2022-09-07T15:32:04.515Z,29.16
2022-09-07T15:34:34.306Z,29.03
2022-09-07T15:37:02.725Z,28.79
2022-09-07T15:39:31.385Z,28.49
2022-09-07T15:42:00.660Z,27.88
2022-09-07T15:44:46.181Z,27.15
2022-09-07T15:50:00.256Z,26.47
2022-09-07T15:52:27.261Z,26.20
2022-09-07T15:54:56.692Z,25.96
2022-09-07T16:00:12.568Z,25.29
2022-09-07T16:05:30.885Z,24.94
2022-09-07T16:10:55.375Z,24.81
2022-09-07T16:13:24.383Z,24.73
2022-09-07T16:15:51.898Z,24.62
2022-09-07T16:18:19.256Z,24.60
2022-09-07T16:20:47.272Z,24.37
2022-09-07T16:23:16.983Z,24.22
2022-09-07T16:25:59.800Z,24.17
2022-09-07T16:28:28.373Z,24.07
2022-09-07T16:30:56.293Z,23.97
2022-09-07T16:33:32.801Z,23.84
2022-09-07T16:36:17.512Z,23.71
2022-09-07T16:38:48.390Z,23.52
2022-09-07T16:41:24.552Z,23.44
2022-09-07T16:43:51.532Z,23.38
2022-09-07T16:46:24.131Z,23.41
2022-09-07T16:48:53.218Z,23.40
2022-09-07T16:51:23.511Z,23.36
2022-09-07T16:53:55.988Z,23.36
2022-09-07T16:56:27.575Z,23.35
2022-09-07T16:59:02.431Z,23.32
2022-09-07T17:01:38.102Z,23.29
2022-09-07T17:04:10.712Z,23.25
2022-09-07T17:06:40.090Z,23.09
2022-09-07T17:09:08.671Z,22.92
2022-09-07T17:11:37.463Z,22.62
2022-09-07T17:14:06.787Z,22.32
2022-09-07T17:16:40.683Z,22.20
2022-09-07T17:22:00.286Z,21.23
2022-09-07T17:24:27.723Z,20.67
2022-09-07T17:26:55.098Z,20.42
2022-09-07T17:29:22.123Z,20.07
2022-09-07T17:34:36.153Z,19.72
2022-09-07T17:37:05.990Z,19.47
2022-09-07T17:39:33.119Z,19.43
2022-09-07T17:42:01.005Z,19.40
2022-09-07T17:44:31.955Z,19.36
2022-09-07T17:47:02.389Z,19.21
2022-09-07T17:49:29.515Z,19.07
2022-09-07T17:51:58.671Z,19.04
2022-09-07T17:54:25.958Z,19.08
2022-09-07T17:56:53.176Z,19.06
2022-09-07T18:02:07.585Z,18.95
2022-09-07T18:04:36.208Z,18.95
2022-09-07T18:07:03.389Z,18.92
2022-09-07T18:09:30.711Z,18.87
2022-09-07T18:11:57.790Z,18.86
2022-09-07T18:14:24.807Z,18.85
2022-09-07T18:16:51.893Z,18.81
2022-09-07T18:19:19.973Z,18.68
2022-09-07T18:21:48.880Z,18.68
2022-09-07T18:24:22.919Z,18.63
2022-09-07T18:26:53.613Z,18.58
2022-09-07T18:29:34.369Z,18.60
2022-09-07T18:32:09.485Z,18.62
2022-09-07T18:34:41.026Z,18.71
2022-09-07T18:37:12.294Z,18.71
2022-09-07T18:39:40.749Z,18.78
2022-09-07T18:42:12.802Z,18.85
2022-09-07T18:47:29.423Z,18.90
2022-09-07T18:49:57.599Z,18.95
2022-09-07T18:55:12.109Z,18.96
2022-09-07T18:57:39.172Z,19.00
2022-09-07T19:00:11.245Z,19.07
2022-09-07T19:02:38.489Z,19.05
2022-09-07T19:07:53.542Z,19.02
2022-09-07T19:10:20.731Z,19.01
2022-09-07T19:12:47.861Z,19.01
2022-09-07T19:15:15.696Z,18.99
2022-09-07T19:17:42.576Z,18.99
2022-09-07T19:20:10.449Z,19.01
2022-09-07T19:22:37.325Z,19.02
2022-09-07T19:25:06.113Z,19.01
2022-09-07T19:27:33.282Z,19.04
2022-09-07T19:30:01.226Z,19.00
2022-09-07T19:32:28.505Z,19.00
2022-09-07T19:34:55.993Z,19.01
2022-09-07T19:37:29.032Z,19.00
2022-09-07T19:39:56.091Z,19.02
2022-09-07T19:42:25.944Z,19.04
2022-09-07T19:44:54.279Z,19.03
2022-09-07T19:47:23.271Z,19.01
2022-09-07T19:49:50.335Z,18.94
2022-09-07T19:52:17.369Z,18.89
2022-09-07T19:54:44.313Z,18.89
2022-09-07T19:57:11.474Z,18.85
2022-09-07T19:59:38.465Z,18.82
2022-09-07T20:02:07.210Z,18.77
2022-09-07T20:04:34.683Z,18.76
2022-09-07T20:07:01.930Z,18.71
2022-09-07T20:09:28.919Z,18.70
2022-09-07T20:11:55.829Z,18.70
2022-09-07T20:14:22.846Z,18.68
2022-09-07T20:16:50.081Z,18.63
2022-09-07T20:19:17.508Z,18.56
2022-09-07T20:21:44.591Z,18.52
2022-09-07T20:24:14.928Z,18.48
2022-09-07T20:26:42.052Z,18.45
2022-09-07T20:32:00.482Z,18.46
2022-09-07T20:34:29.337Z,18.43
2022-09-07T20:36:57.138Z,18.35
2022-09-07T20:39:24.753Z,18.31
2022-09-07T20:41:52.086Z,18.23
2022-09-07T20:44:19.380Z,18.19
2022-09-07T20:46:46.575Z,18.15
2022-09-07T20:49:13.751Z,18.13
2022-09-07T20:51:40.778Z,18.13
2022-09-07T20:54:07.822Z,18.07
2022-09-07T20:56:35.165Z,18.04
2022-09-07T20:59:03.925Z,18.04
2022-09-07T21:01:33.238Z,18.07
2022-09-07T21:04:01.396Z,18.00
2022-09-07T21:06:32.027Z,17.95
2022-09-07T21:09:00.004Z,17.95
2022-09-07T21:11:31.462Z,17.99
2022-09-07T21:14:06.285Z,17.93
2022-09-07T21:16:35.820Z,17.85
2022-09-07T21:19:07.994Z,17.78
2022-09-07T21:21:42.320Z,17.70
2022-09-07T21:24:23.161Z,17.64
2022-09-07T21:26:51.875Z,17.62
2022-09-07T21:29:24.154Z,17.59
2022-09-07T21:31:54.578Z,17.55
2022-09-07T21:34:23.321Z,17.51
2022-09-07T21:36:50.640Z,17.41
2022-09-07T21:39:18.288Z,17.37
2022-09-07T21:41:45.892Z,17.36
2022-09-07T21:44:16.145Z,17.33
2022-09-07T21:46:44.826Z,17.28
2022-09-07T21:49:12.587Z,17.24
2022-09-07T21:51:39.941Z,17.19
2022-09-07T21:54:07.026Z,17.20
2022-09-07T21:56:34.218Z,17.19
2022-09-07T21:59:02.715Z,17.24
2022-09-07T22:01:31.853Z,17.27
2022-09-07T22:04:07.074Z,17.24
2022-09-07T22:06:35.252Z,17.21
2022-09-07T22:09:04.974Z,17.23
2022-09-07T22:11:32.159Z,17.16
2022-09-07T22:14:04.707Z,17.11
2022-09-07T22:16:35.692Z,17.06
2022-09-07T22:19:03.220Z,16.98
2022-09-07T22:21:31.314Z,16.92
2022-09-07T22:24:04.252Z,16.85
2022-09-07T22:26:40.043Z,16.78
2022-09-07T22:29:12.189Z,16.74
2022-09-07T22:31:40.401Z,16.75
2022-09-07T22:34:12.921Z,16.77
2022-09-07T22:36:44.752Z,16.75
2022-09-07T22:39:18.027Z,16.73
2022-09-07T22:41:48.266Z,16.64
2022-09-07T22:44:18.657Z,16.62
2022-09-07T22:46:48.083Z,16.57
2022-09-07T22:49:17.367Z,16.48
2022-09-07T22:51:45.091Z,16.42
2022-09-07T22:54:12.917Z,16.38
2022-09-07T22:56:40.804Z,16.38
2022-09-07T22:59:10.372Z,16.38
2022-09-07T23:01:38.793Z,16.45
2022-09-07T23:04:07.806Z,16.48
2022-09-07T23:06:42.381Z,16.49
2022-09-07T23:09:17.698Z,16.49
2022-09-07T23:11:48.231Z,16.47
2022-09-07T23:14:22.094Z,16.46
2022-09-07T23:16:49.978Z,16.48
2022-09-07T23:19:20.397Z,16.46
2022-09-07T23:21:48.610Z,16.54
2022-09-07T23:24:19.206Z,16.48
2022-09-07T23:26:47.097Z,16.45
2022-09-07T23:29:16.227Z,16.44
2022-09-07T23:31:46.993Z,16.39
2022-09-07T23:34:14.041Z,16.31
2022-09-07T23:36:40.983Z,16.28
2022-09-07T23:39:07.871Z,16.27
2022-09-07T23:41:34.851Z,16.23
2022-09-07T23:44:01.940Z,16.20
2022-09-07T23:46:28.945Z,16.18
2022-09-07T23:48:55.865Z,16.15
2022-09-07T23:51:24.467Z,16.10
2022-09-07T23:53:53.522Z,16.07
2022-09-07T23:56:24.547Z,16.07
2022-09-07T23:58:51.829Z,16.11
